sensor_id;sensor_type;location;lat;lon;timestamp;temperature;humidity
1534;DHT22;760;48.822;9.304;2024-01-10T05:05:25;-2.60;99.90
1534;DHT22;760;48.822;9.304;2024-01-10T05:07:51;-2.50;99.90
1534;DHT22;760;48.822;9.304;2024-01-10T05:10:16;-2.50;99.90
1534;DHT22;760;48.822;9.304;2024-01-10T05:12:42;-2.50;99.90
1534;DHT22;760;48.822;9.304;2024-01-10T05:15:08;-2.50;99.90
1534;DHT22;760;48.822;9.304;2024-01-10T05:17:33;-2.50;99.90
1534;DHT22;760;48.822;9.304;2024-01-10T05:19:59;-2.50;99.90
1534;DHT22;760;48.822;9.304;2024-01-10T05:22:24;-2.50;99.90
1534;DHT22;760;48.822;9.304;2024-01-10T05:24:50;-2.50;99.90
1534;DHT22;760;48.822;9.304;2024-01-10T05:27:16;-2.50;99.90
1534;DHT22;760;48.822;9.304;2024-01-10T05:29:41;-2.60;99.90
1534;DHT22;760;48.822;9.304;2024-01-10T05:32:07;-2.60;99.90
1534;DHT22;760;48.822;9.304;2024-01-10T05:34:32;-2.50;99.90
1534;DHT22;760;48.822;9.304;2024-01-10T05:36:58;-2.60;99.90
1534;DHT22;760;48.822;9.304;2024-01-10T05:39:24;-2.50;99.90
1534;DHT22;760;48.822;9.304;2024-01-10T05:41:49;-2.60;99.90
1534;DHT22;760;48.822;9.304;2024-01-10T05:44:15;-2.60;99.90
1534;DHT22;760;48.822;9.304;2024-01-10T05:46:41;-2.60;99.90
1534;DHT22;760;48.822;9.304;2024-01-10T05:49:08;-2.50;99.90
1534;DHT22;760;48.822;9.304;2024-01-10T05:51:34;-2.50;99.90
1534;DHT22;760;48.822;9.304;2024-01-10T05:53:59;-2.60;99.90
1534;DHT22;760;48.822;9.304;2024-01-10T05:56:25;-2.60;99.90
1534;DHT22;760;48.822;9.304;2024-01-10T05:58:52;-2.60;99.90
1534;DHT22;760;48.822;9.304;2024-01-10T06:01:18;-2.60;99.90
1534;DHT22;760;48.822;9.304;2024-01-10T06:03:43;-2.60;99.90
1534;DHT22;760;48.822;9.304;2024-01-10T06:06:09;-2.60;99.90
1534;DHT22;760;48.822;9.304;2024-01-10T06:08:35;-2.60;99.90
1534;DHT22;760;48.822;9.304;2024-01-10T06:11:05;-2.50;99.90
1534;DHT22;760;48.822;9.304;2024-01-10T06:13:34;-2.60;99.90
1534;DHT22;760;48.822;9.304;2024-01-10T06:16:00;-2.50;99.90
1534;DHT22;760;48.822;9.304;2024-01-10T06:18:28;-2.50;99.90
1534;DHT22;760;48.822;9.304;2024-01-10T06:20:54;-2.50;99.90
1534;DHT22;760;48.822;9.304;2024-01-10T06:23:19;-2.40;99.90
1534;DHT22;760;48.822;9.304;2024-01-10T06:25:45;-2.30;99.90
1534;DHT22;760;48.822;9.304;2024-01-10T06:28:11;-2.30;99.90
1534;DHT22;760;48.822;9.304;2024-01-10T06:30:36;-2.30;99.90
1534;DHT22;760;48.822;9.304;2024-01-10T06:33:02;-2.20;99.90
1534;DHT22;760;48.822;9.304;2024-01-10T06:35:27;-2.20;99.90
1534;DHT22;760;48.822;9.304;2024-01-10T06:37:53;-2.20;99.90
1534;DHT22;760;48.822;9.304;2024-01-10T06:40:18;-2.20;99.90
1534;DHT22;760;48.822;9.304;2024-01-10T06:42:47;-2.20;99.90
1534;DHT22;760;48.822;9.304;2024-01-10T06:45:14;-2.20;99.90
1534;DHT22;760;48.822;9.304;2024-01-10T06:47:39;-2.20;99.90
1534;DHT22;760;48.822;9.304;2024-01-10T06:50:05;-2.30;99.90
1534;DHT22;760;48.822;9.304;2024-01-10T06:52:31;-2.30;99.90
1534;DHT22;760;48.822;9.304;2024-01-10T06:54:57;-2.40;99.90
1534;DHT22;760;48.822;9.304;2024-01-10T06:57:23;-2.30;99.90
1534;DHT22;760;48.822;9.304;2024-01-10T06:59:49;-2.40;99.90
1534;DHT22;760;48.822;9.304;2024-01-10T07:02:14;-2.40;99.90
1534;DHT22;760;48.822;9.304;2024-01-10T07:04:40;-2.40;99.90
1534;DHT22;760;48.822;9.304;2024-01-10T07:07:06;-2.40;99.90
1534;DHT22;760;48.822;9.304;2024-01-10T07:09:33;-2.40;99.90
1534;DHT22;760;48.822;9.304;2024-01-10T07:11:59;-2.40;99.90
1534;DHT22;760;48.822;9.304;2024-01-10T07:14:25;-2.40;99.90
1534;DHT22;760;48.822;9.304;2024-01-10T07:16:50;-2.40;99.90
1534;DHT22;760;48.822;9.304;2024-01-10T07:19:17;-2.50;99.90
1534;DHT22;760;48.822;9.304;2024-01-10T07:21:43;-2.40;99.90
1534;DHT22;760;48.822;9.304;2024-01-10T07:24:09;-2.50;99.90
1534;DHT22;760;48.822;9.304;2024-01-10T07:26:36;-2.50;99.90
1534;DHT22;760;48.822;9.304;2024-01-10T07:29:02;-2.50;99.90
1534;DHT22;760;48.822;9.304;2024-01-10T07:31:28;-2.50;99.90
1534;DHT22;760;48.822;9.304;2024-01-10T07:33:57;-2.50;99.90
1534;DHT22;760;48.822;9.304;2024-01-10T07:36:24;-2.50;99.90
1534;DHT22;760;48.822;9.304;2024-01-10T07:38:52;-2.50;99.90
1534;DHT22;760;48.822;9.304;2024-01-10T07:41:18;-2.50;99.90
1534;DHT22;760;48.822;9.304;2024-01-10T07:43:44;-2.50;99.90
1534;DHT22;760;48.822;9.304;2024-01-10T07:46:09;-2.50;99.90
1534;DHT22;760;48.822;9.304;2024-01-10T07:48:35;-2.50;99.90
1534;DHT22;760;48.822;9.304;2024-01-10T07:51:01;-2.40;99.90
1534;DHT22;760;48.822;9.304;2024-01-10T07:53:30;-2.40;99.90
1534;DHT22;760;48.822;9.304;2024-01-10T07:55:55;-2.40;99.90
1534;DHT22;760;48.822;9.304;2024-01-10T07:58:27;-2.30;99.90
1534;DHT22;760;48.822;9.304;2024-01-10T08:00:53;-2.30;99.90
1534;DHT22;760;48.822;9.304;2024-01-10T08:03:19;-2.30;99.90
1534;DHT22;760;48.822;9.304;2024-01-10T08:05:45;-2.20;99.90
1534;DHT22;760;48.822;9.304;2024-01-10T08:08:11;-2.00;99.90
1534;DHT22;760;48.822;9.304;2024-01-10T08:10:38;-2.00;99.90
1534;DHT22;760;48.822;9.304;2024-01-10T08:13:05;-1.90;99.90
1534;DHT22;760;48.822;9.304;2024-01-10T08:15:31;-1.90;99.90
1534;DHT22;760;48.822;9.304;2024-01-10T08:18:00;-1.90;99.90
1534;DHT22;760;48.822;9.304;2024-01-10T08:20:28;-1.80;99.90
1534;DHT22;760;48.822;9.304;2024-01-10T08:22:54;-1.70;99.90
1534;DHT22;760;48.822;9.304;2024-01-10T08:25:19;-1.60;99.90
1534;DHT22;760;48.822;9.304;2024-01-10T08:27:45;-1.60;99.90
1534;DHT22;760;48.822;9.304;2024-01-10T08:30:11;-1.40;99.90
1534;DHT22;760;48.822;9.304;2024-01-10T08:32:37;-1.30;99.90
1534;DHT22;760;48.822;9.304;2024-01-10T08:35:05;-1.10;99.90
1534;DHT22;760;48.822;9.304;2024-01-10T08:37:34;-0.80;99.90
1534;DHT22;760;48.822;9.304;2024-01-10T08:39:59;-0.50;99.90
1534;DHT22;760;48.822;9.304;2024-01-10T08:42:26;-0.10;99.90
1534;DHT22;760;48.822;9.304;2024-01-10T08:44:53;0.30;99.90
1534;DHT22;760;48.822;9.304;2024-01-10T08:47:18;0.80;99.90
1534;DHT22;760;48.822;9.304;2024-01-10T08:49:45;1.20;99.60
1534;DHT22;760;48.822;9.304;2024-01-10T08:52:10;1.70;97.90
1534;DHT22;760;48.822;9.304;2024-01-10T08:54:37;2.20;97.10
1534;DHT22;760;48.822;9.304;2024-01-10T08:57:02;2.60;96.50
1534;DHT22;760;48.822;9.304;2024-01-10T08:59:28;3.10;96.20
1534;DHT22;760;48.822;9.304;2024-01-10T09:01:54;3.60;94.10
1534;DHT22;760;48.822;9.304;2024-01-10T09:04:20;4.00;91.90
1534;DHT22;760;48.822;9.304;2024-01-10T09:06:45;4.20;92.60
1534;DHT22;760;48.822;9.304;2024-01-10T09:09:12;4.70;91.90
1534;DHT22;760;48.822;9.304;2024-01-10T09:11:38;5.20;91.60
1534;DHT22;760;48.822;9.304;2024-01-10T09:14:04;5.70;89.50
1534;DHT22;760;48.822;9.304;2024-01-10T09:16:29;5.90;86.80
1534;DHT22;760;48.822;9.304;2024-01-10T09:18:55;6.00;85.90
1534;DHT22;760;48.822;9.304;2024-01-10T09:21:23;6.30;88.00
1534;DHT22;760;48.822;9.304;2024-01-10T09:23:49;6.70;87.30
1534;DHT22;760;48.822;9.304;2024-01-10T09:26:17;7.00;86.80
1534;DHT22;760;48.822;9.304;2024-01-10T09:28:43;7.40;85.90
1534;DHT22;760;48.822;9.304;2024-01-10T09:31:09;7.60;84.70
1534;DHT22;760;48.822;9.304;2024-01-10T09:33:35;7.80;80.60
1534;DHT22;760;48.822;9.304;2024-01-10T09:36:00;7.80;78.10
1534;DHT22;760;48.822;9.304;2024-01-10T09:38:26;7.60;80.20
1534;DHT22;760;48.822;9.304;2024-01-10T09:40:59;7.40;77.90
1534;DHT22;760;48.822;9.304;2024-01-10T09:43:27;7.30;82.00
1534;DHT22;760;48.822;9.304;2024-01-10T09:45:54;7.40;78.00
1534;DHT22;760;48.822;9.304;2024-01-10T09:48:20;7.30;77.40
1534;DHT22;760;48.822;9.304;2024-01-10T09:50:49;7.30;81.50
1534;DHT22;760;48.822;9.304;2024-01-10T09:53:22;7.30;80.90
1534;DHT22;760;48.822;9.304;2024-01-10T09:55:49;7.20;76.40
1534;DHT22;760;48.822;9.304;2024-01-10T09:58:14;7.10;77.60
1534;DHT22;760;48.822;9.304;2024-01-10T10:00:40;7.10;76.80
1534;DHT22;760;48.822;9.304;2024-01-10T10:03:10;7.00;79.60
1534;DHT22;760;48.822;9.304;2024-01-10T10:05:39;7.00;78.30
1534;DHT22;760;48.822;9.304;2024-01-10T10:08:07;7.10;79.00
1534;DHT22;760;48.822;9.304;2024-01-10T10:10:35;6.90;77.10
1534;DHT22;760;48.822;9.304;2024-01-10T10:13:00;6.90;78.30
1534;DHT22;760;48.822;9.304;2024-01-10T10:15:27;6.80;77.50
1534;DHT22;760;48.822;9.304;2024-01-10T10:17:54;6.70;77.40
1534;DHT22;760;48.822;9.304;2024-01-10T10:20:23;6.60;79.30
1534;DHT22;760;48.822;9.304;2024-01-10T10:23:08;6.60;78.30
1534;DHT22;760;48.822;9.304;2024-01-10T10:25:43;6.80;80.40
1534;DHT22;760;48.822;9.304;2024-01-10T10:28:08;6.90;79.30
1534;DHT22;760;48.822;9.304;2024-01-10T10:30:34;6.80;78.50
1534;DHT22;760;48.822;9.304;2024-01-10T10:33:01;6.80;78.00
1534;DHT22;760;48.822;9.304;2024-01-10T10:35:27;6.80;79.70
1534;DHT22;760;48.822;9.304;2024-01-10T10:37:53;6.90;77.90
1534;DHT22;760;48.822;9.304;2024-01-10T10:40:20;7.10;78.20
1534;DHT22;760;48.822;9.304;2024-01-10T10:42:47;7.00;78.50
1534;DHT22;760;48.822;9.304;2024-01-10T10:45:18;7.10;78.60
1534;DHT22;760;48.822;9.304;2024-01-10T10:47:47;7.10;78.20
1534;DHT22;760;48.822;9.304;2024-01-10T10:50:21;7.10;77.90
1534;DHT22;760;48.822;9.304;2024-01-10T10:52:51;7.00;78.30
1534;DHT22;760;48.822;9.304;2024-01-10T10:55:18;7.00;78.60
1534;DHT22;760;48.822;9.304;2024-01-10T10:57:48;6.90;78.30
1534;DHT22;760;48.822;9.304;2024-01-10T11:00:16;6.60;77.60
1534;DHT22;760;48.822;9.304;2024-01-10T11:02:42;6.40;78.50
1534;DHT22;760;48.822;9.304;2024-01-10T11:05:11;6.40;79.40
1534;DHT22;760;48.822;9.304;2024-01-10T11:07:38;6.40;79.00
1534;DHT22;760;48.822;9.304;2024-01-10T11:10:19;6.40;80.00
1534;DHT22;760;48.822;9.304;2024-01-10T11:13:25;6.30;78.50
1534;DHT22;760;48.822;9.304;2024-01-10T11:21:21;5.90;79.00
1534;DHT22;760;48.822;9.304;2024-01-10T11:23:53;5.30;79.80
1534;DHT22;760;48.822;9.304;2024-01-10T11:26:20;4.80;81.50
1534;DHT22;760;48.822;9.304;2024-01-10T11:28:46;4.20;81.00
1534;DHT22;760;48.822;9.304;2024-01-10T11:31:13;3.80;83.00
1534;DHT22;760;48.822;9.304;2024-01-10T11:33:40;3.30;84.10
1534;DHT22;760;48.822;9.304;2024-01-10T11:36:18;3.00;85.20
1534;DHT22;760;48.822;9.304;2024-01-10T11:41:29;2.70;87.60
1534;DHT22;760;48.822;9.304;2024-01-10T11:46:45;2.20;89.50
1534;DHT22;760;48.822;9.304;2024-01-10T11:49:17;2.00;90.10
1534;DHT22;760;48.822;9.304;2024-01-10T11:51:48;2.00;90.40
1534;DHT22;760;48.822;9.304;2024-01-10T11:54:35;1.90;90.80
1534;DHT22;760;48.822;9.304;2024-01-10T11:57:01;1.90;90.80
1534;DHT22;760;48.822;9.304;2024-01-10T11:59:27;1.80;91.30
1534;DHT22;760;48.822;9.304;2024-01-10T12:01:54;1.80;91.30
1534;DHT22;760;48.822;9.304;2024-01-10T12:04:20;1.70;91.40
1534;DHT22;760;48.822;9.304;2024-01-10T12:06:47;1.80;91.80
1534;DHT22;760;48.822;9.304;2024-01-10T12:09:13;1.70;91.70
1534;DHT22;760;48.822;9.304;2024-01-10T12:11:39;1.70;92.00
1534;DHT22;760;48.822;9.304;2024-01-10T12:14:08;1.70;92.40
1534;DHT22;760;48.822;9.304;2024-01-10T12:16:33;1.80;92.50
1534;DHT22;760;48.822;9.304;2024-01-10T12:18:59;1.80;92.40
1534;DHT22;760;48.822;9.304;2024-01-10T12:21:24;1.70;92.40
1534;DHT22;760;48.822;9.304;2024-01-10T12:23:50;1.70;92.40
1534;DHT22;760;48.822;9.304;2024-01-10T12:26:18;1.60;92.50
1534;DHT22;760;48.822;9.304;2024-01-10T12:28:57;1.60;92.70
1534;DHT22;760;48.822;9.304;2024-01-10T12:31:26;1.60;92.90
1534;DHT22;760;48.822;9.304;2024-01-10T12:33:52;1.60;93.20
1534;DHT22;760;48.822;9.304;2024-01-10T12:36:18;1.70;93.30
1534;DHT22;760;48.822;9.304;2024-01-10T12:38:45;1.70;93.20
1534;DHT22;760;48.822;9.304;2024-01-10T12:41:14;1.70;93.10
1534;DHT22;760;48.822;9.304;2024-01-10T12:43:39;1.70;93.20
1534;DHT22;760;48.822;9.304;2024-01-10T12:46:07;1.70;93.20
1534;DHT22;760;48.822;9.304;2024-01-10T12:48:34;1.80;93.70
1534;DHT22;760;48.822;9.304;2024-01-10T12:51:03;1.80;93.50
1534;DHT22;760;48.822;9.304;2024-01-10T12:53:43;1.80;93.50
1534;DHT22;760;48.822;9.304;2024-01-10T12:56:10;1.80;93.30
1534;DHT22;760;48.822;9.304;2024-01-10T12:58:40;1.80;93.40
1534;DHT22;760;48.822;9.304;2024-01-10T13:01:08;1.80;93.50
1534;DHT22;760;48.822;9.304;2024-01-10T13:03:34;1.80;93.40
1534;DHT22;760;48.822;9.304;2024-01-10T13:06:00;1.80;93.60
1534;DHT22;760;48.822;9.304;2024-01-10T13:08:26;1.90;93.90
1534;DHT22;760;48.822;9.304;2024-01-10T13:10:52;1.90;93.70
1534;DHT22;760;48.822;9.304;2024-01-10T13:13:19;1.90;93.80
1534;DHT22;760;48.822;9.304;2024-01-10T13:15:47;1.90;94.10
1534;DHT22;760;48.822;9.304;2024-01-10T13:18:13;2.00;94.30
1534;DHT22;760;48.822;9.304;2024-01-10T13:20:43;1.90;93.80
1534;DHT22;760;48.822;9.304;2024-01-10T13:23:12;2.00;94.00
1534;DHT22;760;48.822;9.304;2024-01-10T13:25:37;2.00;93.90
1534;DHT22;760;48.822;9.304;2024-01-10T13:28:04;1.90;93.80
1534;DHT22;760;48.822;9.304;2024-01-10T13:30:30;1.90;94.00
1534;DHT22;760;48.822;9.304;2024-01-10T13:32:55;2.00;94.20
1534;DHT22;760;48.822;9.304;2024-01-10T13:35:21;2.00;94.20
1534;DHT22;760;48.822;9.304;2024-01-10T13:37:48;2.00;94.60
1534;DHT22;760;48.822;9.304;2024-01-10T13:40:13;2.00;94.10
1534;DHT22;760;48.822;9.304;2024-01-10T13:42:40;1.90;94.60
1534;DHT22;760;48.822;9.304;2024-01-10T13:45:09;2.00;94.60
1534;DHT22;760;48.822;9.304;2024-01-10T13:47:36;2.00;94.30
1534;DHT22;760;48.822;9.304;2024-01-10T13:50:04;2.00;94.20
1534;DHT22;760;48.822;9.304;2024-01-10T13:52:31;2.10;94.20
1534;DHT22;760;48.822;9.304;2024-01-10T13:54:57;2.10;94.20
1534;DHT22;760;48.822;9.304;2024-01-10T13:57:22;2.10;94.10
1534;DHT22;760;48.822;9.304;2024-01-10T13:59:49;2.10;94.10
1534;DHT22;760;48.822;9.304;2024-01-10T14:02:14;2.10;94.00
1534;DHT22;760;48.822;9.304;2024-01-10T14:04:41;2.10;94.20
1534;DHT22;760;48.822;9.304;2024-01-10T14:07:07;2.10;94.20
1534;DHT22;760;48.822;9.304;2024-01-10T14:09:32;2.10;94.30
1534;DHT22;760;48.822;9.304;2024-01-10T14:11:59;2.10;94.20
1534;DHT22;760;48.822;9.304;2024-01-10T14:14:24;2.10;94.30
1534;DHT22;760;48.822;9.304;2024-01-10T14:16:50;2.20;94.50
1534;DHT22;760;48.822;9.304;2024-01-10T14:19:16;2.10;94.40
1534;DHT22;760;48.822;9.304;2024-01-10T14:21:44;2.20;94.60
1534;DHT22;760;48.822;9.304;2024-01-10T14:24:11;2.20;94.60
1534;DHT22;760;48.822;9.304;2024-01-10T14:26:37;2.20;94.50
1534;DHT22;760;48.822;9.304;2024-01-10T14:29:03;2.10;94.40
1534;DHT22;760;48.822;9.304;2024-01-10T14:31:28;2.10;94.40
1534;DHT22;760;48.822;9.304;2024-01-10T14:33:54;2.10;94.60
1534;DHT22;760;48.822;9.304;2024-01-10T14:36:20;2.10;94.60
1534;DHT22;760;48.822;9.304;2024-01-10T14:38:46;2.10;94.50
1534;DHT22;760;48.822;9.304;2024-01-10T14:41:12;2.10;94.60
1534;DHT22;760;48.822;9.304;2024-01-10T14:43:37;2.00;94.80
1534;DHT22;760;48.822;9.304;2024-01-10T14:46:04;2.10;95.00
1534;DHT22;760;48.822;9.304;2024-01-10T14:48:33;2.00;94.90
1534;DHT22;760;48.822;9.304;2024-01-10T14:50:59;2.10;95.10
1534;DHT22;760;48.822;9.304;2024-01-10T14:53:26;2.10;95.10
1534;DHT22;760;48.822;9.304;2024-01-10T14:55:51;2.00;95.00
1534;DHT22;760;48.822;9.304;2024-01-10T14:58:18;1.90;95.10
1534;DHT22;760;48.822;9.304;2024-01-10T15:00:44;1.80;95.20
1534;DHT22;760;48.822;9.304;2024-01-10T15:03:10;1.80;95.40
1534;DHT22;760;48.822;9.304;2024-01-10T15:05:36;1.80;95.40
1534;DHT22;760;48.822;9.304;2024-01-10T15:08:02;1.70;95.50
1534;DHT22;760;48.822;9.304;2024-01-10T15:10:28;1.70;95.60
1534;DHT22;760;48.822;9.304;2024-01-10T15:12:53;1.80;95.90
1534;DHT22;760;48.822;9.304;2024-01-10T15:15:19;1.70;96.00
1534;DHT22;760;48.822;9.304;2024-01-10T15:17:46;1.70;96.20
1534;DHT22;760;48.822;9.304;2024-01-10T15:20:11;1.70;96.30
1534;DHT22;760;48.822;9.304;2024-01-10T15:22:37;1.60;96.50
1534;DHT22;760;48.822;9.304;2024-01-10T15:25:07;1.60;96.70
1534;DHT22;760;48.822;9.304;2024-01-10T15:27:32;1.60;96.90
1534;DHT22;760;48.822;9.304;2024-01-10T15:29:58;1.50;96.90
1534;DHT22;760;48.822;9.304;2024-01-10T15:32:24;1.40;97.00
1534;DHT22;760;48.822;9.304;2024-01-10T15:34:50;1.40;97.30
1534;DHT22;760;48.822;9.304;2024-01-10T15:37:16;1.30;97.50
1534;DHT22;760;48.822;9.304;2024-01-10T15:39:42;1.30;97.60
1534;DHT22;760;48.822;9.304;2024-01-10T15:42:07;1.20;97.80
1534;DHT22;760;48.822;9.304;2024-01-10T15:44:41;1.20;98.30
1534;DHT22;760;48.822;9.304;2024-01-10T15:47:07;1.00;98.20
1534;DHT22;760;48.822;9.304;2024-01-10T15:49:32;1.00;98.50
1534;DHT22;760;48.822;9.304;2024-01-10T15:51:58;0.90;98.70
1534;DHT22;760;48.822;9.304;2024-01-10T15:54:24;0.80;98.80
1534;DHT22;760;48.822;9.304;2024-01-10T15:56:50;0.80;99.00
1534;DHT22;760;48.822;9.304;2024-01-10T15:59:15;0.80;99.20
1534;DHT22;760;48.822;9.304;2024-01-10T16:01:41;0.70;99.30
1534;DHT22;760;48.822;9.304;2024-01-10T16:04:07;0.60;99.50
1534;DHT22;760;48.822;9.304;2024-01-10T16:06:33;0.60;99.70
1534;DHT22;760;48.822;9.304;2024-01-10T16:09:00;0.50;99.80
1534;DHT22;760;48.822;9.304;2024-01-10T16:11:26;0.50;99.90
1534;DHT22;760;48.822;9.304;2024-01-10T16:13:52;0.40;99.90
1534;DHT22;760;48.822;9.304;2024-01-10T16:16:27;0.40;99.90
1534;DHT22;760;48.822;9.304;2024-01-10T16:18:52;0.30;99.90
1534;DHT22;760;48.822;9.304;2024-01-10T16:21:21;0.20;99.90
1534;DHT22;760;48.822;9.304;2024-01-10T16:23:47;0.20;99.90
1534;DHT22;760;48.822;9.304;2024-01-10T16:26:13;0.20;99.90
1534;DHT22;760;48.822;9.304;2024-01-10T16:28:38;0.10;99.90
1534;DHT22;760;48.822;9.304;2024-01-10T16:31:04;0.10;99.90
1534;DHT22;760;48.822;9.304;2024-01-10T16:33:30;0.10;99.90
1534;DHT22;760;48.822;9.304;2024-01-10T16:35:55;0.00;99.90
1534;DHT22;760;48.822;9.304;2024-01-10T16:38:21;0.00;99.90
1534;DHT22;760;48.822;9.304;2024-01-10T16:40:47;0.00;99.90
1534;DHT22;760;48.822;9.304;2024-01-10T16:43:12;0.00;99.90
1534;DHT22;760;48.822;9.304;2024-01-10T16:45:38;-0.10;99.90
1534;DHT22;760;48.822;9.304;2024-01-10T16:48:04;-0.10;99.90
1534;DHT22;760;48.822;9.304;2024-01-10T16:50:30;-0.10;99.90
1534;DHT22;760;48.822;9.304;2024-01-10T16:52:59;-0.10;99.90
1534;DHT22;760;48.822;9.304;2024-01-10T16:55:26;-0.10;99.90
1534;DHT22;760;48.822;9.304;2024-01-10T16:57:52;-0.20;99.90
1534;DHT22;760;48.822;9.304;2024-01-10T17:00:19;-0.20;99.90
1534;DHT22;760;48.822;9.304;2024-01-10T17:02:45;-0.20;99.90
1534;DHT22;760;48.822;9.304;2024-01-10T17:05:12;-0.20;99.90
1534;DHT22;760;48.822;9.304;2024-01-10T17:07:37;-0.20;99.90
1534;DHT22;760;48.822;9.304;2024-01-10T17:10:04;-0.20;99.90
1534;DHT22;760;48.822;9.304;2024-01-10T17:12:30;-0.20;99.90
1534;DHT22;760;48.822;9.304;2024-01-10T17:14:55;-0.30;99.90
1534;DHT22;760;48.822;9.304;2024-01-10T17:17:21;-0.30;99.90
1534;DHT22;760;48.822;9.304;2024-01-10T17:19:47;-0.40;99.90
1534;DHT22;760;48.822;9.304;2024-01-10T17:22:13;-0.40;99.90
1534;DHT22;760;48.822;9.304;2024-01-10T17:24:39;-0.40;99.90
1534;DHT22;760;48.822;9.304;2024-01-10T17:27:05;-0.50;99.90
1534;DHT22;760;48.822;9.304;2024-01-10T17:29:30;-0.50;99.90
1534;DHT22;760;48.822;9.304;2024-01-10T17:31:56;-0.50;99.90
1534;DHT22;760;48.822;9.304;2024-01-10T17:34:21;-0.40;99.90
1534;DHT22;760;48.822;9.304;2024-01-10T17:36:47;-0.50;99.90
1534;DHT22;760;48.822;9.304;2024-01-10T17:39:12;-0.50;99.90
1534;DHT22;760;48.822;9.304;2024-01-10T17:41:39;-0.50;99.90
1534;DHT22;760;48.822;9.304;2024-01-10T17:44:05;-0.50;99.90
1534;DHT22;760;48.822;9.304;2024-01-10T17:46:30;-0.50;99.90
1534;DHT22;760;48.822;9.304;2024-01-10T17:48:56;-0.50;99.90
1534;DHT22;760;48.822;9.304;2024-01-10T17:51:23;-0.50;99.90
1534;DHT22;760;48.822;9.304;2024-01-10T17:53:50;-0.50;99.90
1534;DHT22;760;48.822;9.304;2024-01-10T17:56:16;-0.50;99.90
1534;DHT22;760;48.822;9.304;2024-01-10T17:58:41;-0.60;99.90
1534;DHT22;760;48.822;9.304;2024-01-10T18:01:07;-0.60;99.90
1534;DHT22;760;48.822;9.304;2024-01-10T18:03:33;-0.60;99.90
1534;DHT22;760;48.822;9.304;2024-01-10T18:05:59;-0.70;99.90
1534;DHT22;760;48.822;9.304;2024-01-10T18:08:24;-0.70;99.90
1534;DHT22;760;48.822;9.304;2024-01-10T18:10:50;-0.70;99.90
1534;DHT22;760;48.822;9.304;2024-01-10T18:13:17;-0.70;99.90
1534;DHT22;760;48.822;9.304;2024-01-10T18:15:44;-0.70;99.90
1534;DHT22;760;48.822;9.304;2024-01-10T18:18:10;-0.70;99.90
1534;DHT22;760;48.822;9.304;2024-01-10T18:20:35;-0.70;99.90
1534;DHT22;760;48.822;9.304;2024-01-10T18:23:01;-0.70;99.90
1534;DHT22;760;48.822;9.304;2024-01-10T18:25:27;-0.70;99.90
1534;DHT22;760;48.822;9.304;2024-01-10T18:27:52;-0.70;99.90
1534;DHT22;760;48.822;9.304;2024-01-10T18:30:18;-0.70;99.90
1534;DHT22;760;48.822;9.304;2024-01-10T18:32:45;-0.80;99.90
1534;DHT22;760;48.822;9.304;2024-01-10T18:35:11;-0.80;99.90
1534;DHT22;760;48.822;9.304;2024-01-10T18:37:37;-0.80;99.90
1534;DHT22;760;48.822;9.304;2024-01-10T18:40:03;-0.80;99.90
1534;DHT22;760;48.822;9.304;2024-01-10T18:42:30;-0.80;99.90
1534;DHT22;760;48.822;9.304;2024-01-10T18:44:56;-0.80;99.90
1534;DHT22;760;48.822;9.304;2024-01-10T18:47:21;-0.80;99.90
1534;DHT22;760;48.822;9.304;2024-01-10T18:49:47;-0.90;99.90
1534;DHT22;760;48.822;9.304;2024-01-10T18:52:13;-0.90;99.90
1534;DHT22;760;48.822;9.304;2024-01-10T18:54:40;-0.90;99.90
1534;DHT22;760;48.822;9.304;2024-01-10T18:57:06;-0.90;99.90
1534;DHT22;760;48.822;9.304;2024-01-10T18:59:36;-1.00;99.90
1534;DHT22;760;48.822;9.304;2024-01-10T19:02:03;-1.00;99.90
1534;DHT22;760;48.822;9.304;2024-01-10T19:04:29;-1.10;99.90
1534;DHT22;760;48.822;9.304;2024-01-10T19:06:55;-1.10;99.90
1534;DHT22;760;48.822;9.304;2024-01-10T19:09:21;-1.10;99.90
1534;DHT22;760;48.822;9.304;2024-01-10T19:11:48;-1.10;99.90
1534;DHT22;760;48.822;9.304;2024-01-10T19:14:13;-1.20;99.90
1534;DHT22;760;48.822;9.304;2024-01-10T19:16:39;-1.10;99.90
1534;DHT22;760;48.822;9.304;2024-01-10T19:19:11;-1.20;99.90
1534;DHT22;760;48.822;9.304;2024-01-10T19:21:38;-1.20;99.90
1534;DHT22;760;48.822;9.304;2024-01-10T19:24:04;-1.30;99.90
1534;DHT22;760;48.822;9.304;2024-01-10T19:26:29;-1.30;99.90
1534;DHT22;760;48.822;9.304;2024-01-10T19:28:55;-1.30;99.90
1534;DHT22;760;48.822;9.304;2024-01-10T19:31:21;-1.30;99.90
1534;DHT22;760;48.822;9.304;2024-01-10T19:33:46;-1.30;99.90
1534;DHT22;760;48.822;9.304;2024-01-10T19:36:14;-1.40;99.90
1534;DHT22;760;48.822;9.304;2024-01-10T19:38:41;-1.40;99.90
1534;DHT22;760;48.822;9.304;2024-01-10T19:41:06;-1.40;99.90
1534;DHT22;760;48.822;9.304;2024-01-10T19:43:32;-1.40;99.90
1534;DHT22;760;48.822;9.304;2024-01-10T19:45:58;-1.50;99.90
1534;DHT22;760;48.822;9.304;2024-01-10T19:48:26;-1.50;99.90
1534;DHT22;760;48.822;9.304;2024-01-10T19:50:52;-1.60;99.90
1534;DHT22;760;48.822;9.304;2024-01-10T19:53:20;-1.60;99.90
1534;DHT22;760;48.822;9.304;2024-01-10T19:55:46;-1.60;99.90
1534;DHT22;760;48.822;9.304;2024-01-10T19:58:11;-1.70;99.90
1534;DHT22;760;48.822;9.304;2024-01-10T20:00:37;-1.70;99.90
1534;DHT22;760;48.822;9.304;2024-01-10T20:03:03;-1.70;99.90
1534;DHT22;760;48.822;9.304;2024-01-10T20:05:29;-1.80;99.90
1534;DHT22;760;48.822;9.304;2024-01-10T20:07:57;-1.70;99.90
1534;DHT22;760;48.822;9.304;2024-01-10T20:10:22;-1.80;99.90
1534;DHT22;760;48.822;9.304;2024-01-10T20:12:48;-1.80;99.90
1534;DHT22;760;48.822;9.304;2024-01-10T20:15:14;-1.80;99.90
1534;DHT22;760;48.822;9.304;2024-01-10T20:17:41;-1.80;99.90
1534;DHT22;760;48.822;9.304;2024-01-10T20:20:07;-1.80;99.90
1534;DHT22;760;48.822;9.304;2024-01-10T20:22:33;-1.90;99.90
1534;DHT22;760;48.822;9.304;2024-01-10T20:24:59;-1.90;99.90
1534;DHT22;760;48.822;9.304;2024-01-10T20:27:24;-2.00;99.90
1534;DHT22;760;48.822;9.304;2024-01-10T20:29:50;-2.00;99.90
1534;DHT22;760;48.822;9.304;2024-01-10T20:32:16;-2.00;99.90
1534;DHT22;760;48.822;9.304;2024-01-10T20:34:41;-2.00;99.90
1534;DHT22;760;48.822;9.304;2024-01-10T20:37:09;-2.10;99.90
1534;DHT22;760;48.822;9.304;2024-01-10T20:39:35;-2.10;99.90
1534;DHT22;760;48.822;9.304;2024-01-10T20:42:00;-2.10;99.90
1534;DHT22;760;48.822;9.304;2024-01-10T20:44:26;-2.20;99.90
1534;DHT22;760;48.822;9.304;2024-01-10T20:46:51;-2.20;99.90
1534;DHT22;760;48.822;9.304;2024-01-10T20:49:17;-2.20;99.90
1534;DHT22;760;48.822;9.304;2024-01-10T20:51:43;-2.20;99.90
1534;DHT22;760;48.822;9.304;2024-01-10T20:54:08;-2.20;99.90
1534;DHT22;760;48.822;9.304;2024-01-10T20:56:34;-2.30;99.90
1534;DHT22;760;48.822;9.304;2024-01-10T20:58:59;-2.30;99.90
1534;DHT22;760;48.822;9.304;2024-01-10T21:01:25;-2.30;99.90
1534;DHT22;760;48.822;9.304;2024-01-10T21:03:50;-2.40;99.90
1534;DHT22;760;48.822;9.304;2024-01-10T21:06:16;-2.40;99.90
1534;DHT22;760;48.822;9.304;2024-01-10T21:08:42;-2.40;99.90
1534;DHT22;760;48.822;9.304;2024-01-10T21:11:07;-2.50;99.90
1534;DHT22;760;48.822;9.304;2024-01-10T21:13:33;-2.50;99.90
1534;DHT22;760;48.822;9.304;2024-01-10T21:15:59;-2.50;99.90
1534;DHT22;760;48.822;9.304;2024-01-10T21:18:24;-2.60;99.90
1534;DHT22;760;48.822;9.304;2024-01-10T21:20:50;-2.60;99.90
1534;DHT22;760;48.822;9.304;2024-01-10T21:23:17;-2.60;99.90
1534;DHT22;760;48.822;9.304;2024-01-10T21:25:42;-2.50;99.90
1534;DHT22;760;48.822;9.304;2024-01-10T21:28:08;-2.50;99.90
1534;DHT22;760;48.822;9.304;2024-01-10T21:30:34;-2.50;99.90
1534;DHT22;760;48.822;9.304;2024-01-10T21:33:02;-2.50;99.90
1534;DHT22;760;48.822;9.304;2024-01-10T21:35:29;-2.60;99.90
1534;DHT22;760;48.822;9.304;2024-01-10T21:37:55;-2.60;99.90